sensor_id;sensor_type;location;lat;lon;timestamp;P1;durP1;ratioP1;P2;durP2;ratioP2
24325;SDS011;12448;45.532;5.290;2022-09-09T00:00:11;2.80;;;0.98;;
24325;SDS011;12448;45.532;5.290;2022-09-09T00:02:44;7.50;;;0.90;;
24325;SDS011;12448;45.532;5.290;2022-09-09T00:05:29;2.07;;;1.00;;
24325;SDS011;12448;45.532;5.290;2022-09-09T00:08:04;1.90;;;1.08;;
24325;SDS011;12448;45.532;5.290;2022-09-09T00:10:38;4.90;;;1.05;;
24325;SDS011;12448;45.532;5.290;2022-09-09T00:15:54;2.63;;;1.30;;
24325;SDS011;12448;45.532;5.290;2022-09-09T00:22:28;7.05;;;1.30;;
24325;SDS011;12448;45.532;5.290;2022-09-09T00:35:56;2.72;;;0.82;;
24325;SDS011;12448;45.532;5.290;2022-09-09T00:38:33;3.45;;;1.10;;
24325;SDS011;12448;45.532;5.290;2022-09-09T00:44:51;3.05;;;1.00;;
24325;SDS011;12448;45.532;5.290;2022-09-09T00:51:15;7.05;;;1.10;;
24325;SDS011;12448;45.532;5.290;2022-09-09T01:15:19;4.75;;;1.10;;
24325;SDS011;12448;45.532;5.290;2022-09-09T01:29:08;3.78;;;1.00;;
24325;SDS011;12448;45.532;5.290;2022-09-09T01:31:58;4.03;;;1.70;;
24325;SDS011;12448;45.532;5.290;2022-09-09T01:38:05;9.82;;;1.67;;
24325;SDS011;12448;45.532;5.290;2022-09-09T01:41:04;2.42;;;1.00;;
24325;SDS011;12448;45.532;5.290;2022-09-09T01:43:50;2.17;;;1.05;;
24325;SDS011;12448;45.532;5.290;2022-09-09T01:46:34;5.45;;;1.20;;
24325;SDS011;12448;45.532;5.290;2022-09-09T01:49:00;5.43;;;1.13;;
24325;SDS011;12448;45.532;5.290;2022-09-09T01:51:29;7.13;;;1.23;;
24325;SDS011;12448;45.532;5.290;2022-09-09T01:53:55;3.03;;;1.00;;
24325;SDS011;12448;45.532;5.290;2022-09-09T01:56:25;4.22;;;1.08;;
24325;SDS011;12448;45.532;5.290;2022-09-09T02:02:13;3.67;;;1.20;;
24325;SDS011;12448;45.532;5.290;2022-09-09T02:04:50;4.30;;;1.15;;
24325;SDS011;12448;45.532;5.290;2022-09-09T02:07:43;5.03;;;1.20;;
24325;SDS011;12448;45.532;5.290;2022-09-09T02:10:33;3.22;;;1.00;;
24325;SDS011;12448;45.532;5.290;2022-09-09T02:13:19;6.82;;;1.10;;
24325;SDS011;12448;45.532;5.290;2022-09-09T02:22:14;4.05;;;1.02;;
24325;SDS011;12448;45.532;5.290;2022-09-09T02:24:42;6.97;;;1.05;;
24325;SDS011;12448;45.532;5.290;2022-09-09T02:30:21;3.92;;;1.10;;
24325;SDS011;12448;45.532;5.290;2022-09-09T02:36:52;3.88;;;1.40;;
24325;SDS011;12448;45.532;5.290;2022-09-09T02:39:40;3.88;;;1.00;;
24325;SDS011;12448;45.532;5.290;2022-09-09T02:42:09;4.00;;;1.08;;
24325;SDS011;12448;45.532;5.290;2022-09-09T02:44:35;3.20;;;1.08;;
24325;SDS011;12448;45.532;5.290;2022-09-09T02:58:17;4.40;;;1.00;;
24325;SDS011;12448;45.532;5.290;2022-09-09T03:04:30;4.75;;;1.13;;
24325;SDS011;12448;45.532;5.290;2022-09-09T03:10:09;3.35;;;1.10;;
24325;SDS011;12448;45.532;5.290;2022-09-09T03:12:35;4.45;;;0.90;;
24325;SDS011;12448;45.532;5.290;2022-09-09T03:15:04;3.65;;;1.20;;
24325;SDS011;12448;45.532;5.290;2022-09-09T03:20:36;6.65;;;1.00;;
24325;SDS011;12448;45.532;5.290;2022-09-09T03:23:02;4.50;;;1.23;;
24325;SDS011;12448;45.532;5.290;2022-09-09T03:25:57;7.88;;;1.25;;
24325;SDS011;12448;45.532;5.290;2022-09-09T03:31:44;7.53;;;1.30;;
24325;SDS011;12448;45.532;5.290;2022-09-09T03:34:13;4.68;;;1.30;;
24325;SDS011;12448;45.532;5.290;2022-09-09T03:36:44;4.90;;;1.15;;
24325;SDS011;12448;45.532;5.290;2022-09-09T03:39:29;7.05;;;1.10;;
24325;SDS011;12448;45.532;5.290;2022-09-09T03:41:55;7.13;;;1.40;;
24325;SDS011;12448;45.532;5.290;2022-09-09T03:47:21;3.88;;;1.05;;
24325;SDS011;12448;45.532;5.290;2022-09-09T03:49:47;6.15;;;1.20;;
24325;SDS011;12448;45.532;5.290;2022-09-09T03:52:16;5.03;;;1.15;;
24325;SDS011;12448;45.532;5.290;2022-09-09T03:54:57;13.60;;;1.58;;
24325;SDS011;12448;45.532;5.290;2022-09-09T03:57:29;3.53;;;1.38;;
24325;SDS011;12448;45.532;5.290;2022-09-09T03:59:55;4.25;;;1.10;;
24325;SDS011;12448;45.532;5.290;2022-09-09T04:02:36;2.80;;;1.23;;
24325;SDS011;12448;45.532;5.290;2022-09-09T04:05:27;5.40;;;0.95;;
24325;SDS011;12448;45.532;5.290;2022-09-09T04:07:53;4.95;;;1.00;;
24325;SDS011;12448;45.532;5.290;2022-09-09T04:10:19;4.82;;;0.98;;
24325;SDS011;12448;45.532;5.290;2022-09-09T04:15:43;4.85;;;1.02;;
24325;SDS011;12448;45.532;5.290;2022-09-09T04:18:21;3.72;;;0.90;;
24325;SDS011;12448;45.532;5.290;2022-09-09T04:20:48;4.57;;;1.10;;
24325;SDS011;12448;45.532;5.290;2022-09-09T04:23:29;4.00;;;1.27;;
24325;SDS011;12448;45.532;5.290;2022-09-09T04:26:22;3.53;;;1.02;;
24325;SDS011;12448;45.532;5.290;2022-09-09T04:31:39;4.10;;;1.10;;
24325;SDS011;12448;45.532;5.290;2022-09-09T04:34:07;8.50;;;1.38;;
24325;SDS011;12448;45.532;5.290;2022-09-09T04:36:43;2.50;;;1.20;;
24325;SDS011;12448;45.532;5.290;2022-09-09T04:39:17;2.75;;;1.05;;
24325;SDS011;12448;45.532;5.290;2022-09-09T04:41:44;4.25;;;1.02;;
24325;SDS011;12448;45.532;5.290;2022-09-09T04:44:13;4.22;;;1.23;;
24325;SDS011;12448;45.532;5.290;2022-09-09T04:46:48;3.45;;;1.10;;
24325;SDS011;12448;45.532;5.290;2022-09-09T04:49:14;4.72;;;1.10;;
24325;SDS011;12448;45.532;5.290;2022-09-09T04:51:39;2.35;;;1.08;;
24325;SDS011;12448;45.532;5.290;2022-09-09T04:54:08;2.42;;;1.10;;
24325;SDS011;12448;45.532;5.290;2022-09-09T04:56:37;6.03;;;1.65;;
24325;SDS011;12448;45.532;5.290;2022-09-09T04:59:03;2.63;;;1.40;;
24325;SDS011;12448;45.532;5.290;2022-09-09T05:01:31;5.40;;;1.45;;
24325;SDS011;12448;45.532;5.290;2022-09-09T05:03:58;2.85;;;1.10;;
24325;SDS011;12448;45.532;5.290;2022-09-09T05:06:23;4.70;;;1.17;;
24325;SDS011;12448;45.532;5.290;2022-09-09T05:08:49;5.25;;;1.20;;
24325;SDS011;12448;45.532;5.290;2022-09-09T05:11:18;3.92;;;1.58;;
24325;SDS011;12448;45.532;5.290;2022-09-09T05:13:45;7.07;;;1.30;;
24325;SDS011;12448;45.532;5.290;2022-09-09T05:16:12;4.95;;;1.30;;
24325;SDS011;12448;45.532;5.290;2022-09-09T05:18:39;5.10;;;1.42;;
24325;SDS011;12448;45.532;5.290;2022-09-09T05:21:28;3.08;;;1.10;;
24325;SDS011;12448;45.532;5.290;2022-09-09T05:24:15;14.48;;;1.15;;
24325;SDS011;12448;45.532;5.290;2022-09-09T05:26:44;4.03;;;1.08;;
24325;SDS011;12448;45.532;5.290;2022-09-09T05:29:14;9.10;;;1.30;;
24325;SDS011;12448;45.532;5.290;2022-09-09T05:34:53;4.25;;;1.50;;
24325;SDS011;12448;45.532;5.290;2022-09-09T05:37:58;5.20;;;1.08;;
24325;SDS011;12448;45.532;5.290;2022-09-09T05:40:34;3.78;;;1.27;;
24325;SDS011;12448;45.532;5.290;2022-09-09T05:43:28;4.80;;;1.50;;
24325;SDS011;12448;45.532;5.290;2022-09-09T05:52:26;4.68;;;1.23;;
24325;SDS011;12448;45.532;5.290;2022-09-09T05:55:13;2.47;;;1.08;;
24325;SDS011;12448;45.532;5.290;2022-09-09T06:01:33;7.43;;;1.40;;
24325;SDS011;12448;45.532;5.290;2022-09-09T06:14:09;2.72;;;1.10;;
24325;SDS011;12448;45.532;5.290;2022-09-09T06:16:59;5.30;;;1.25;;
24325;SDS011;12448;45.532;5.290;2022-09-09T06:26:32;2.80;;;1.05;;
24325;SDS011;12448;45.532;5.290;2022-09-09T06:29:55;1.70;;;1.10;;
24325;SDS011;12448;45.532;5.290;2022-09-09T06:32:28;4.05;;;1.30;;
24325;SDS011;12448;45.532;5.290;2022-09-09T06:35:33;3.83;;;1.33;;
24325;SDS011;12448;45.532;5.290;2022-09-09T06:38:07;3.67;;;1.10;;
24325;SDS011;12448;45.532;5.290;2022-09-09T06:40:36;7.18;;;1.33;;
24325;SDS011;12448;45.532;5.290;2022-09-09T06:43:04;3.80;;;1.42;;
24325;SDS011;12448;45.532;5.290;2022-09-09T06:45:31;6.18;;;1.60;;
24325;SDS011;12448;45.532;5.290;2022-09-09T06:47:56;3.40;;;1.20;;
24325;SDS011;12448;45.532;5.290;2022-09-09T06:57:12;5.30;;;1.33;;
24325;SDS011;12448;45.532;5.290;2022-09-09T06:59:51;4.32;;;1.30;;
24325;SDS011;12448;45.532;5.290;2022-09-09T07:02:32;5.15;;;1.00;;
24325;SDS011;12448;45.532;5.290;2022-09-09T07:05:04;3.78;;;1.40;;
24325;SDS011;12448;45.532;5.290;2022-09-09T07:07:33;5.22;;;1.00;;
24325;SDS011;12448;45.532;5.290;2022-09-09T07:10:11;2.80;;;1.00;;
24325;SDS011;12448;45.532;5.290;2022-09-09T07:12:40;8.13;;;1.23;;
24325;SDS011;12448;45.532;5.290;2022-09-09T07:15:41;4.20;;;1.42;;
24325;SDS011;12448;45.532;5.290;2022-09-09T07:21:48;3.80;;;1.20;;
24325;SDS011;12448;45.532;5.290;2022-09-09T07:24:19;5.90;;;1.25;;
24325;SDS011;12448;45.532;5.290;2022-09-09T07:26:57;6.40;;;1.48;;
24325;SDS011;12448;45.532;5.290;2022-09-09T07:29:24;4.47;;;1.42;;
24325;SDS011;12448;45.532;5.290;2022-09-09T07:32:12;4.25;;;1.38;;
24325;SDS011;12448;45.532;5.290;2022-09-09T07:35:20;5.32;;;1.08;;
24325;SDS011;12448;45.532;5.290;2022-09-09T07:38:00;4.32;;;1.30;;
24325;SDS011;12448;45.532;5.290;2022-09-09T07:41:18;6.07;;;1.10;;
24325;SDS011;12448;45.532;5.290;2022-09-09T07:44:28;6.47;;;1.23;;
24325;SDS011;12448;45.532;5.290;2022-09-09T07:47:12;4.15;;;0.98;;
24325;SDS011;12448;45.532;5.290;2022-09-09T07:50:21;3.55;;;0.95;;
24325;SDS011;12448;45.532;5.290;2022-09-09T07:57:17;2.97;;;0.90;;
24325;SDS011;12448;45.532;5.290;2022-09-09T08:07:14;7.40;;;1.17;;
24325;SDS011;12448;45.532;5.290;2022-09-09T08:13:18;9.07;;;1.33;;
24325;SDS011;12448;45.532;5.290;2022-09-09T08:19:14;3.97;;;0.82;;
24325;SDS011;12448;45.532;5.290;2022-09-09T08:26:03;3.90;;;1.08;;
24325;SDS011;12448;45.532;5.290;2022-09-09T08:32:42;3.35;;;1.05;;
24325;SDS011;12448;45.532;5.290;2022-09-09T08:35:37;6.10;;;1.15;;
24325;SDS011;12448;45.532;5.290;2022-09-09T08:38:03;6.22;;;1.17;;
24325;SDS011;12448;45.532;5.290;2022-09-09T08:40:45;3.38;;;1.02;;
24325;SDS011;12448;45.532;5.290;2022-09-09T09:12:19;5.43;;;0.95;;
24325;SDS011;12448;45.532;5.290;2022-09-09T09:15:30;5.13;;;1.00;;
24325;SDS011;12448;45.532;5.290;2022-09-09T09:18:25;7.55;;;1.30;;
24325;SDS011;12448;45.532;5.290;2022-09-09T09:26:22;4.45;;;1.38;;
24325;SDS011;12448;45.532;5.290;2022-09-09T09:28:53;3.42;;;0.95;;
24325;SDS011;12448;45.532;5.290;2022-09-09T09:31:22;4.28;;;1.40;;
24325;SDS011;12448;45.532;5.290;2022-09-09T09:33:51;3.05;;;0.88;;
24325;SDS011;12448;45.532;5.290;2022-09-09T09:36:18;3.75;;;0.88;;
24325;SDS011;12448;45.532;5.290;2022-09-09T09:38:55;7.05;;;1.05;;
24325;SDS011;12448;45.532;5.290;2022-09-09T09:41:31;4.07;;;0.80;;
24325;SDS011;12448;45.532;5.290;2022-09-09T09:43:57;1.98;;;0.80;;
24325;SDS011;12448;45.532;5.290;2022-09-09T09:46:25;2.55;;;1.02;;
24325;SDS011;12448;45.532;5.290;2022-09-09T09:48:58;2.78;;;1.10;;
24325;SDS011;12448;45.532;5.290;2022-09-09T09:51:25;5.68;;;0.80;;
24325;SDS011;12448;45.532;5.290;2022-09-09T09:53:53;4.78;;;0.80;;
24325;SDS011;12448;45.532;5.290;2022-09-09T09:56:25;5.63;;;1.20;;
24325;SDS011;12448;45.532;5.290;2022-09-09T09:58:54;5.38;;;1.00;;
24325;SDS011;12448;45.532;5.290;2022-09-09T10:01:27;3.20;;;0.98;;
24325;SDS011;12448;45.532;5.290;2022-09-09T10:06:45;3.92;;;0.60;;
24325;SDS011;12448;45.532;5.290;2022-09-09T10:09:26;4.93;;;0.90;;
24325;SDS011;12448;45.532;5.290;2022-09-09T10:12:08;2.55;;;1.02;;
24325;SDS011;12448;45.532;5.290;2022-09-09T10:14:49;3.55;;;1.05;;
24325;SDS011;12448;45.532;5.290;2022-09-09T10:17:57;5.35;;;0.90;;
24325;SDS011;12448;45.532;5.290;2022-09-09T10:31:47;2.67;;;0.90;;
24325;SDS011;12448;45.532;5.290;2022-09-09T10:53:11;3.67;;;0.80;;
24325;SDS011;12448;45.532;5.290;2022-09-09T10:56:07;1.83;;;0.70;;
24325;SDS011;12448;45.532;5.290;2022-09-09T11:04:45;4.55;;;0.82;;
24325;SDS011;12448;45.532;5.290;2022-09-09T11:07:32;4.25;;;0.82;;
24325;SDS011;12448;45.532;5.290;2022-09-09T11:10:02;5.25;;;0.80;;
24325;SDS011;12448;45.532;5.290;2022-09-09T11:12:32;4.97;;;0.98;;
24325;SDS011;12448;45.532;5.290;2022-09-09T11:15:15;4.30;;;0.93;;
24325;SDS011;12448;45.532;5.290;2022-09-09T11:17:58;2.85;;;0.82;;
24325;SDS011;12448;45.532;5.290;2022-09-09T11:20:29;3.13;;;0.75;;
24325;SDS011;12448;45.532;5.290;2022-09-09T11:23:04;4.85;;;1.00;;
24325;SDS011;12448;45.532;5.290;2022-09-09T11:25:51;3.60;;;1.42;;
24325;SDS011;12448;45.532;5.290;2022-09-09T11:28:32;3.65;;;0.70;;
24325;SDS011;12448;45.532;5.290;2022-09-09T11:34:13;2.25;;;0.60;;
24325;SDS011;12448;45.532;5.290;2022-09-09T11:43:05;2.78;;;1.10;;
24325;SDS011;12448;45.532;5.290;2022-09-09T11:45:33;4.90;;;1.02;;
24325;SDS011;12448;45.532;5.290;2022-09-09T11:48:01;1.60;;;0.55;;
24325;SDS011;12448;45.532;5.290;2022-09-09T11:50:29;3.25;;;1.00;;
24325;SDS011;12448;45.532;5.290;2022-09-09T11:55:38;2.25;;;0.82;;
24325;SDS011;12448;45.532;5.290;2022-09-09T12:00:38;4.25;;;1.15;;
24325;SDS011;12448;45.532;5.290;2022-09-09T12:06:13;4.85;;;0.70;;
24325;SDS011;12448;45.532;5.290;2022-09-09T12:14:42;4.43;;;0.82;;
24325;SDS011;12448;45.532;5.290;2022-09-09T12:17:21;3.42;;;0.90;;
24325;SDS011;12448;45.532;5.290;2022-09-09T12:19:48;1.95;;;0.60;;
24325;SDS011;12448;45.532;5.290;2022-09-09T12:28:16;2.47;;;0.75;;
24325;SDS011;12448;45.532;5.290;2022-09-09T12:31:06;1.33;;;0.52;;
24325;SDS011;12448;45.532;5.290;2022-09-09T12:33:42;2.67;;;0.90;;
24325;SDS011;12448;45.532;5.290;2022-09-09T12:36:15;1.48;;;0.70;;
24325;SDS011;12448;45.532;5.290;2022-09-09T12:38:44;2.95;;;0.70;;
24325;SDS011;12448;45.532;5.290;2022-09-09T12:41:20;2.58;;;0.63;;
24325;SDS011;12448;45.532;5.290;2022-09-09T12:43:48;1.35;;;0.60;;
24325;SDS011;12448;45.532;5.290;2022-09-09T12:46:24;2.53;;;0.52;;
24325;SDS011;12448;45.532;5.290;2022-09-09T12:48:58;2.45;;;0.70;;
24325;SDS011;12448;45.532;5.290;2022-09-09T12:51:24;1.67;;;0.75;;
24325;SDS011;12448;45.532;5.290;2022-09-09T12:53:56;2.20;;;0.57;;
24325;SDS011;12448;45.532;5.290;2022-09-09T12:56:27;1.60;;;0.57;;
24325;SDS011;12448;45.532;5.290;2022-09-09T12:58:56;2.60;;;0.70;;
24325;SDS011;12448;45.532;5.290;2022-09-09T13:01:24;2.58;;;0.60;;
24325;SDS011;12448;45.532;5.290;2022-09-09T13:03:54;1.25;;;0.50;;
24325;SDS011;12448;45.532;5.290;2022-09-09T13:06:22;1.77;;;0.63;;
24325;SDS011;12448;45.532;5.290;2022-09-09T13:08:52;1.05;;;0.43;;
24325;SDS011;12448;45.532;5.290;2022-09-09T13:11:21;7.28;;;0.70;;
24325;SDS011;12448;45.532;5.290;2022-09-09T13:14:02;2.25;;;0.60;;
24325;SDS011;12448;45.532;5.290;2022-09-09T13:16:29;2.05;;;0.70;;
24325;SDS011;12448;45.532;5.290;2022-09-09T13:18:59;3.35;;;0.80;;
24325;SDS011;12448;45.532;5.290;2022-09-09T13:21:39;3.72;;;0.60;;
24325;SDS011;12448;45.532;5.290;2022-09-09T13:24:27;2.40;;;0.70;;
24325;SDS011;12448;45.532;5.290;2022-09-09T13:26:55;2.80;;;0.77;;
24325;SDS011;12448;45.532;5.290;2022-09-09T13:29:23;2.05;;;0.60;;
24325;SDS011;12448;45.532;5.290;2022-09-09T13:31:49;2.42;;;0.57;;
24325;SDS011;12448;45.532;5.290;2022-09-09T13:34:27;5.28;;;0.90;;
24325;SDS011;12448;45.532;5.290;2022-09-09T13:37:04;2.75;;;0.90;;
24325;SDS011;12448;45.532;5.290;2022-09-09T13:39:32;1.55;;;0.60;;
24325;SDS011;12448;45.532;5.290;2022-09-09T13:42:01;2.45;;;0.70;;
24325;SDS011;12448;45.532;5.290;2022-09-09T13:44:35;2.72;;;0.60;;
24325;SDS011;12448;45.532;5.290;2022-09-09T13:49:31;2.38;;;0.63;;
24325;SDS011;12448;45.532;5.290;2022-09-09T13:54:41;2.03;;;0.60;;
24325;SDS011;12448;45.532;5.290;2022-09-09T13:57:18;2.35;;;0.77;;
24325;SDS011;12448;45.532;5.290;2022-09-09T13:59:46;2.58;;;0.77;;
24325;SDS011;12448;45.532;5.290;2022-09-09T14:02:13;3.17;;;0.68;;
24325;SDS011;12448;45.532;5.290;2022-09-09T14:04:39;1.73;;;0.50;;
24325;SDS011;12448;45.532;5.290;2022-09-09T14:07:11;3.40;;;0.70;;
24325;SDS011;12448;45.532;5.290;2022-09-09T14:09:39;1.45;;;0.57;;
24325;SDS011;12448;45.532;5.290;2022-09-09T14:12:05;3.30;;;0.68;;
24325;SDS011;12448;45.532;5.290;2022-09-09T14:14:34;2.00;;;0.77;;
24325;SDS011;12448;45.532;5.290;2022-09-09T14:17:01;4.53;;;0.70;;
24325;SDS011;12448;45.532;5.290;2022-09-09T14:19:26;2.15;;;0.75;;
24325;SDS011;12448;45.532;5.290;2022-09-09T14:21:52;4.63;;;0.80;;
24325;SDS011;12448;45.532;5.290;2022-09-09T14:24:17;3.80;;;0.70;;
24325;SDS011;12448;45.532;5.290;2022-09-09T14:26:44;2.92;;;0.80;;
24325;SDS011;12448;45.532;5.290;2022-09-09T14:29:13;1.08;;;0.60;;
24325;SDS011;12448;45.532;5.290;2022-09-09T14:31:38;2.92;;;0.80;;
24325;SDS011;12448;45.532;5.290;2022-09-09T14:34:04;3.95;;;1.05;;
24325;SDS011;12448;45.532;5.290;2022-09-09T14:36:31;1.70;;;0.80;;
24325;SDS011;12448;45.532;5.290;2022-09-09T14:38:57;1.55;;;0.60;;
24325;SDS011;12448;45.532;5.290;2022-09-09T14:41:23;2.40;;;0.73;;
24325;SDS011;12448;45.532;5.290;2022-09-09T14:43:50;2.28;;;0.80;;
24325;SDS011;12448;45.532;5.290;2022-09-09T14:46:17;2.53;;;0.60;;
24325;SDS011;12448;45.532;5.290;2022-09-09T14:48:45;1.27;;;0.90;;
24325;SDS011;12448;45.532;5.290;2022-09-09T14:51:20;2.47;;;0.80;;
24325;SDS011;12448;45.532;5.290;2022-09-09T14:53:52;2.80;;;0.70;;
24325;SDS011;12448;45.532;5.290;2022-09-09T14:56:20;2.13;;;0.77;;
24325;SDS011;12448;45.532;5.290;2022-09-09T14:58:48;3.28;;;0.75;;
24325;SDS011;12448;45.532;5.290;2022-09-09T15:01:15;3.42;;;0.85;;
24325;SDS011;12448;45.532;5.290;2022-09-09T15:03:43;3.72;;;0.90;;
24325;SDS011;12448;45.532;5.290;2022-09-09T15:06:18;1.77;;;0.80;;
24325;SDS011;12448;45.532;5.290;2022-09-09T15:08:45;1.17;;;0.60;;
24325;SDS011;12448;45.532;5.290;2022-09-09T15:11:12;1.60;;;0.70;;
24325;SDS011;12448;45.532;5.290;2022-09-09T15:13:39;4.22;;;0.80;;
24325;SDS011;12448;45.532;5.290;2022-09-09T15:16:08;2.40;;;0.60;;
24325;SDS011;12448;45.532;5.290;2022-09-09T15:18:34;4.00;;;0.77;;
24325;SDS011;12448;45.532;5.290;2022-09-09T15:21:01;2.25;;;0.60;;
24325;SDS011;12448;45.532;5.290;2022-09-09T15:23:31;2.75;;;0.82;;
24325;SDS011;12448;45.532;5.290;2022-09-09T15:25:57;2.03;;;0.70;;
24325;SDS011;12448;45.532;5.290;2022-09-09T15:28:23;4.82;;;0.80;;
24325;SDS011;12448;45.532;5.290;2022-09-09T15:30:49;1.80;;;0.80;;
24325;SDS011;12448;45.532;5.290;2022-09-09T15:33:17;3.08;;;0.88;;
24325;SDS011;12448;45.532;5.290;2022-09-09T15:35:43;4.43;;;0.70;;
24325;SDS011;12448;45.532;5.290;2022-09-09T15:38:09;2.47;;;0.93;;
24325;SDS011;12448;45.532;5.290;2022-09-09T15:40:35;3.63;;;0.70;;
24325;SDS011;12448;45.532;5.290;2022-09-09T15:43:00;3.83;;;0.70;;
24325;SDS011;12448;45.532;5.290;2022-09-09T15:45:28;2.80;;;0.70;;
24325;SDS011;12448;45.532;5.290;2022-09-09T15:47:56;1.48;;;0.65;;
24325;SDS011;12448;45.532;5.290;2022-09-09T15:50:21;1.33;;;0.50;;
24325;SDS011;12448;45.532;5.290;2022-09-09T15:52:47;2.97;;;0.80;;
24325;SDS011;12448;45.532;5.290;2022-09-09T15:55:13;4.03;;;0.95;;
24325;SDS011;12448;45.532;5.290;2022-09-09T15:57:39;3.42;;;0.80;;
24325;SDS011;12448;45.532;5.290;2022-09-09T16:00:05;1.50;;;0.55;;
24325;SDS011;12448;45.532;5.290;2022-09-09T16:02:32;3.92;;;0.70;;
24325;SDS011;12448;45.532;5.290;2022-09-09T16:04:58;3.58;;;0.70;;
24325;SDS011;12448;45.532;5.290;2022-09-09T16:07:23;3.83;;;0.70;;
24325;SDS011;12448;45.532;5.290;2022-09-09T16:09:49;2.85;;;0.68;;
24325;SDS011;12448;45.532;5.290;2022-09-09T16:12:17;4.13;;;1.02;;
24325;SDS011;12448;45.532;5.290;2022-09-09T16:14:43;4.13;;;0.93;;
24325;SDS011;12448;45.532;5.290;2022-09-09T16:17:10;1.88;;;0.68;;
24325;SDS011;12448;45.532;5.290;2022-09-09T16:19:36;1.33;;;0.52;;
24325;SDS011;12448;45.532;5.290;2022-09-09T16:22:02;4.90;;;0.60;;
24325;SDS011;12448;45.532;5.290;2022-09-09T16:24:29;2.60;;;0.70;;
24325;SDS011;12448;45.532;5.290;2022-09-09T16:26:54;3.35;;;0.95;;
24325;SDS011;12448;45.532;5.290;2022-09-09T16:29:21;3.60;;;0.60;;
24325;SDS011;12448;45.532;5.290;2022-09-09T16:31:49;5.80;;;1.00;;
24325;SDS011;12448;45.532;5.290;2022-09-09T16:34:15;2.97;;;0.77;;
24325;SDS011;12448;45.532;5.290;2022-09-09T16:36:42;3.00;;;0.70;;
24325;SDS011;12448;45.532;5.290;2022-09-09T16:39:09;2.85;;;0.80;;
24325;SDS011;12448;45.532;5.290;2022-09-09T16:41:37;2.92;;;0.82;;
24325;SDS011;12448;45.532;5.290;2022-09-09T16:44:05;6.45;;;0.82;;
24325;SDS011;12448;45.532;5.290;2022-09-09T16:46:34;1.48;;;0.90;;
24325;SDS011;12448;45.532;5.290;2022-09-09T16:49:02;2.30;;;0.70;;
24325;SDS011;12448;45.532;5.290;2022-09-09T16:51:29;3.15;;;0.77;;
24325;SDS011;12448;45.532;5.290;2022-09-09T16:54:00;2.70;;;0.55;;
24325;SDS011;12448;45.532;5.290;2022-09-09T16:56:27;4.10;;;1.15;;
24325;SDS011;12448;45.532;5.290;2022-09-09T16:58:59;2.30;;;0.77;;
24325;SDS011;12448;45.532;5.290;2022-09-09T17:01:28;1.92;;;0.63;;
24325;SDS011;12448;45.532;5.290;2022-09-09T17:03:56;4.18;;;0.90;;
24325;SDS011;12448;45.532;5.290;2022-09-09T17:06:22;2.80;;;0.70;;
24325;SDS011;12448;45.532;5.290;2022-09-09T17:08:53;2.38;;;0.60;;
24325;SDS011;12448;45.532;5.290;2022-09-09T17:11:20;2.42;;;0.82;;
24325;SDS011;12448;45.532;5.290;2022-09-09T17:13:46;4.72;;;0.90;;
24325;SDS011;12448;45.532;5.290;2022-09-09T17:16:13;3.17;;;0.80;;
24325;SDS011;12448;45.532;5.290;2022-09-09T17:18:41;2.78;;;0.90;;
24325;SDS011;12448;45.532;5.290;2022-09-09T17:21:09;3.40;;;0.73;;
24325;SDS011;12448;45.532;5.290;2022-09-09T17:23:38;4.68;;;0.70;;
24325;SDS011;12448;45.532;5.290;2022-09-09T17:26:05;4.05;;;0.77;;
24325;SDS011;12448;45.532;5.290;2022-09-09T17:28:35;3.78;;;0.82;;
24325;SDS011;12448;45.532;5.290;2022-09-09T17:31:03;2.42;;;0.80;;
24325;SDS011;12448;45.532;5.290;2022-09-09T17:33:32;1.45;;;0.70;;
24325;SDS011;12448;45.532;5.290;2022-09-09T17:36:00;4.75;;;0.80;;
24325;SDS011;12448;45.532;5.290;2022-09-09T17:38:28;3.72;;;0.85;;
24325;SDS011;12448;45.532;5.290;2022-09-09T17:41:07;3.85;;;0.70;;
24325;SDS011;12448;45.532;5.290;2022-09-09T17:43:35;2.97;;;0.77;;
24325;SDS011;12448;45.532;5.290;2022-09-09T17:46:09;3.08;;;0.70;;
24325;SDS011;12448;45.532;5.290;2022-09-09T17:48:35;2.45;;;0.90;;
24325;SDS011;12448;45.532;5.290;2022-09-09T17:51:02;2.83;;;1.02;;
24325;SDS011;12448;45.532;5.290;2022-09-09T17:53:29;2.10;;;0.70;;
24325;SDS011;12448;45.532;5.290;2022-09-09T17:56:01;3.63;;;0.95;;
24325;SDS011;12448;45.532;5.290;2022-09-09T17:58:27;3.78;;;0.82;;
24325;SDS011;12448;45.532;5.290;2022-09-09T18:00:53;1.77;;;0.73;;
24325;SDS011;12448;45.532;5.290;2022-09-09T18:03:19;4.55;;;0.75;;
24325;SDS011;12448;45.532;5.290;2022-09-09T18:05:45;3.95;;;0.80;;
24325;SDS011;12448;45.532;5.290;2022-09-09T18:08:11;2.42;;;0.73;;
24325;SDS011;12448;45.532;5.290;2022-09-09T18:10:37;2.20;;;0.55;;
24325;SDS011;12448;45.532;5.290;2022-09-09T18:13:03;4.55;;;0.88;;
24325;SDS011;12448;45.532;5.290;2022-09-09T18:15:37;3.22;;;0.90;;
24325;SDS011;12448;45.532;5.290;2022-09-09T18:18:03;5.50;;;0.95;;
24325;SDS011;12448;45.532;5.290;2022-09-09T18:20:30;7.57;;;1.00;;
24325;SDS011;12448;45.532;5.290;2022-09-09T18:22:56;3.13;;;0.90;;
24325;SDS011;12448;45.532;5.290;2022-09-09T18:25:22;1.63;;;0.90;;
24325;SDS011;12448;45.532;5.290;2022-09-09T18:27:49;4.05;;;1.30;;
24325;SDS011;12448;45.532;5.290;2022-09-09T18:30:16;5.00;;;0.95;;
24325;SDS011;12448;45.532;5.290;2022-09-09T18:32:41;4.10;;;1.10;;
24325;SDS011;12448;45.532;5.290;2022-09-09T18:35:43;3.15;;;1.15;;
24325;SDS011;12448;45.532;5.290;2022-09-09T18:38:12;3.50;;;0.80;;
24325;SDS011;12448;45.532;5.290;2022-09-09T18:40:41;1.83;;;0.85;;
24325;SDS011;12448;45.532;5.290;2022-09-09T18:43:08;6.30;;;1.00;;
24325;SDS011;12448;45.532;5.290;2022-09-09T18:45:49;3.22;;;1.00;;
24325;SDS011;12448;45.532;5.290;2022-09-09T18:48:14;3.85;;;1.00;;
24325;SDS011;12448;45.532;5.290;2022-09-09T18:50:40;3.50;;;1.27;;
24325;SDS011;12448;45.532;5.290;2022-09-09T18:53:05;2.88;;;0.90;;
24325;SDS011;12448;45.532;5.290;2022-09-09T18:55:31;2.47;;;0.60;;
24325;SDS011;12448;45.532;5.290;2022-09-09T18:57:57;6.13;;;1.50;;
24325;SDS011;12448;45.532;5.290;2022-09-09T19:00:23;3.92;;;0.45;;
24325;SDS011;12448;45.532;5.290;2022-09-09T19:02:49;4.85;;;1.15;;
24325;SDS011;12448;45.532;5.290;2022-09-09T19:05:17;3.65;;;1.10;;
24325;SDS011;12448;45.532;5.290;2022-09-09T19:07:42;6.00;;;1.00;;
24325;SDS011;12448;45.532;5.290;2022-09-09T19:10:11;2.63;;;1.13;;
24325;SDS011;12448;45.532;5.290;2022-09-09T19:12:43;6.05;;;0.90;;
24325;SDS011;12448;45.532;5.290;2022-09-09T19:15:09;10.75;;;1.45;;
24325;SDS011;12448;45.532;5.290;2022-09-09T19:17:37;7.20;;;1.33;;
24325;SDS011;12448;45.532;5.290;2022-09-09T19:20:03;6.65;;;1.30;;
24325;SDS011;12448;45.532;5.290;2022-09-09T19:22:32;6.25;;;1.45;;
24325;SDS011;12448;45.532;5.290;2022-09-09T19:24:58;6.22;;;1.20;;
24325;SDS011;12448;45.532;5.290;2022-09-09T19:27:27;2.50;;;1.25;;
24325;SDS011;12448;45.532;5.290;2022-09-09T19:29:53;7.63;;;1.27;;
24325;SDS011;12448;45.532;5.290;2022-09-09T19:32:18;4.40;;;1.20;;
24325;SDS011;12448;45.532;5.290;2022-09-09T19:34:44;5.90;;;1.30;;
24325;SDS011;12448;45.532;5.290;2022-09-09T19:37:10;3.40;;;1.02;;
24325;SDS011;12448;45.532;5.290;2022-09-09T19:39:36;5.53;;;1.20;;
24325;SDS011;12448;45.532;5.290;2022-09-09T19:42:01;5.25;;;1.17;;
24325;SDS011;12448;45.532;5.290;2022-09-09T19:44:27;2.60;;;1.10;;
24325;SDS011;12448;45.532;5.290;2022-09-09T19:46:53;4.63;;;1.20;;
24325;SDS011;12448;45.532;5.290;2022-09-09T19:49:19;4.22;;;1.10;;
24325;SDS011;12448;45.532;5.290;2022-09-09T19:51:45;7.95;;;1.40;;
24325;SDS011;12448;45.532;5.290;2022-09-09T19:54:11;3.97;;;1.30;;
24325;SDS011;12448;45.532;5.290;2022-09-09T20:03:16;4.25;;;1.10;;
24325;SDS011;12448;45.532;5.290;2022-09-09T20:06:02;4.40;;;0.90;;
24325;SDS011;12448;45.532;5.290;2022-09-09T20:08:38;4.22;;;1.00;;
24325;SDS011;12448;45.532;5.290;2022-09-09T20:11:05;2.30;;;0.90;;